Time;durP1;ratioP1;P1;durP2;ratioP2;P2;SDS_P1;SDS_P2;PMS_P1;PMS_P2;Temp;Humidity;BMP_temperature;BMP_pressure;BME280_temperature;BME280_humidity;BME280_pressure;Samples;Min_cycle;Max_cycle;Signal;HPM_P1;HPM_P2
2023/06/19 00:00:06;;;;;;;10.43;10.13;;;22.00;99.90;;;;;;6311467;22;20185;-87
2023/06/19 00:02:42;;;;;;;10.20;9.90;;;22.00;99.90;;;;;;6306771;22;20246;-87
2023/06/19 00:05:11;;;;;;;10.20;9.90;;;21.90;99.90;;;;;;6294864;22;20215;-88
2023/06/19 00:07:39;;;;;;;10.45;10.15;;;21.90;99.90;;;;;;6291873;22;20251;-87
2023/06/19 00:10:10;;;;;;;10.48;10.18;;;21.90;99.90;;;;;;6290829;22;20197;-85
2023/06/19 00:15:23;;;;;;;10.40;10.10;;;21.80;99.90;;;;;;6290447;22;20197;-87
2023/06/19 00:17:56;;;;;;;10.38;10.07;;;21.80;99.90;;;;;;6292512;22;20197;-87
2023/06/19 00:20:24;;;;;;;10.38;10.07;;;21.70;99.90;;;;;;6290511;22;20232;-86
2023/06/19 00:22:55;;;;;;;10.40;10.10;;;21.70;99.90;;;;;;6290857;22;20220;-87
2023/06/19 00:25:28;;;;;;;10.40;10.10;;;21.70;99.90;;;;;;6291205;22;20201;-87
2023/06/19 00:27:55;;;;;;;10.45;10.15;;;21.60;99.90;;;;;;6297309;22;20186;-86
2023/06/19 00:30:23;;;;;;;10.90;10.60;;;21.60;99.90;;;;;;6309740;22;20186;-85
2023/06/19 00:32:53;;;;;;;10.57;10.27;;;21.60;99.90;;;;;;6293776;22;20202;-86
2023/06/19 00:35:22;;;;;;;10.60;10.30;;;21.60;99.90;;;;;;6306311;22;20182;-86
2023/06/19 00:37:51;;;;;;;10.70;10.40;;;21.50;99.90;;;;;;6313192;22;20228;-85
2023/06/19 00:40:41;;;;;;;10.75;10.45;;;21.50;99.90;;;;;;6312274;22;20205;-85
2023/06/19 00:43:17;;;;;;;10.43;10.13;;;21.50;99.90;;;;;;6311072;22;20249;-86
2023/06/19 00:45:46;;;;;;;10.50;10.20;;;21.50;99.90;;;;;;6310379;22;20173;-87
2023/06/19 00:48:16;;;;;;;10.50;10.20;;;21.40;99.90;;;;;;6295275;22;20221;-88
2023/06/19 00:50:45;;;;;;;10.73;10.43;;;21.30;99.90;;;;;;6291678;22;20204;-87
2023/06/19 00:53:14;;;;;;;10.50;10.20;;;21.40;99.90;;;;;;6291066;22;20206;-87
2023/06/19 00:58:49;;;;;;;10.60;10.30;;;21.30;99.90;;;;;;6290988;22;20200;-87
2023/06/19 01:01:18;;;;;;;10.50;10.20;;;21.20;99.90;;;;;;6290534;22;20200;-88
2023/06/19 01:03:47;;;;;;;10.18;9.88;;;21.30;99.90;;;;;;6295434;22;20204;-87
2023/06/19 01:06:26;;;;;;;10.40;10.10;;;21.30;99.90;;;;;;6292146;22;20205;-88
2023/06/19 01:09:03;;;;;;;10.40;10.10;;;21.20;99.90;;;;;;6291324;22;20204;-87
2023/06/19 01:11:59;;;;;;;10.50;10.20;;;21.20;99.90;;;;;;6290625;22;20231;-87
2023/06/19 01:14:38;;;;;;;10.52;10.23;;;21.10;99.90;;;;;;6291052;22;20197;-87
2023/06/19 01:17:07;;;;;;;10.50;10.20;;;21.10;99.90;;;;;;6290619;22;20224;-87
2023/06/19 01:19:36;;;;;;;10.50;10.20;;;21.00;99.90;;;;;;6289760;22;20209;-87
2023/06/19 01:22:17;;;;;;;10.55;10.25;;;20.90;99.90;;;;;;6290156;22;20198;-88
2023/06/19 01:24:44;;;;;;;10.68;10.38;;;20.90;99.90;;;;;;6290020;22;20216;-88
2023/06/19 01:27:14;;;;;;;10.55;10.25;;;20.90;99.90;;;;;;6290610;22;20285;-89
2023/06/19 01:29:42;;;;;;;10.38;10.07;;;20.90;99.90;;;;;;6289633;22;20201;-87
2023/06/19 01:32:21;;;;;;;10.50;10.20;;;20.80;99.90;;;;;;6302360;22;20201;-86
2023/06/19 01:34:59;;;;;;;10.52;10.23;;;20.80;99.90;;;;;;6295509;22;20197;-86
2023/06/19 01:37:38;;;;;;;10.57;10.27;;;20.80;99.90;;;;;;6292558;22;20216;-87
2023/06/19 01:40:15;;;;;;;10.70;10.40;;;20.80;99.90;;;;;;6291081;22;20310;-86
2023/06/19 01:42:55;;;;;;;10.38;10.07;;;20.70;99.90;;;;;;6291070;22;20189;-87
2023/06/19 01:45:23;;;;;;;10.38;10.07;;;20.70;99.90;;;;;;6291448;22;20195;-86
2023/06/19 01:50:40;;;;;;;10.50;10.20;;;20.70;99.90;;;;;;6289173;22;20193;-87
2023/06/19 01:53:19;;;;;;;10.45;10.15;;;20.60;99.90;;;;;;6291545;22;20197;-88
2023/06/19 01:55:58;;;;;;;10.70;10.40;;;20.60;99.90;;;;;;6292715;22;20193;-87
2023/06/19 01:58:26;;;;;;;10.65;10.35;;;20.60;99.90;;;;;;6296783;22;20244;-87
2023/06/19 02:01:04;;;;;;;10.50;10.20;;;20.60;99.90;;;;;;6292608;22;20193;-87
2023/06/19 02:03:33;;;;;;;10.55;10.25;;;20.60;99.90;;;;;;6291337;22;20193;-87
2023/06/19 02:06:03;;;;;;;10.48;10.18;;;20.50;99.90;;;;;;6291715;22;20202;-87
2023/06/19 02:11:22;;;;;;;10.40;10.10;;;20.50;99.90;;;;;;6290461;22;20224;-87
2023/06/19 02:13:51;;;;;;;10.20;9.90;;;20.50;99.90;;;;;;6290662;22;20201;-88
2023/06/19 02:16:19;;;;;;;10.35;10.05;;;20.50;99.90;;;;;;6291017;22;20198;-87
2023/06/19 02:21:28;;;;;;;10.30;10.00;;;20.40;99.90;;;;;;6288524;22;20200;-88
2023/06/19 02:24:00;;;;;;;10.52;10.23;;;20.40;99.90;;;;;;6290349;22;20278;-87
2023/06/19 02:26:36;;;;;;;10.60;10.30;;;20.40;99.90;;;;;;6291131;22;20237;-87
2023/06/19 02:34:33;;;;;;;10.32;10.02;;;20.10;99.90;;;;;;6290212;22;20205;-87
2023/06/19 02:39:49;;;;;;;10.20;9.90;;;20.00;99.90;;;;;;6289298;22;20201;-87
2023/06/19 02:45:45;;;;;;;10.18;9.88;;;19.90;99.90;;;;;;5244024;27;20523;-88
2023/06/19 02:48:19;;;;;;;10.90;10.60;;;19.90;99.90;;;;;;5229861;27;20197;-87
2023/06/19 02:50:47;;;;;;;10.90;10.60;;;19.90;99.90;;;;;;5243463;27;20237;-86
2023/06/19 02:53:17;;;;;;;10.90;10.60;;;20.00;99.90;;;;;;5242398;27;20219;-88
2023/06/19 02:55:45;;;;;;;11.05;10.75;;;20.00;99.90;;;;;;5238658;27;20205;-88
2023/06/19 03:01:01;;;;;;;10.43;10.13;;;20.00;99.90;;;;;;5226182;27;20226;-88
2023/06/19 03:03:30;;;;;;;10.60;10.30;;;20.00;99.90;;;;;;5223646;27;20225;-88
2023/06/19 03:08:40;;;;;;;10.40;10.10;;;20.00;99.90;;;;;;5229733;27;20230;-87
2023/06/19 03:11:10;;;;;;;10.80;10.50;;;20.00;99.90;;;;;;5228989;27;20226;-88
2023/06/19 03:13:56;;;;;;;10.90;10.60;;;20.00;99.90;;;;;;5223314;27;20220;-88
2023/06/19 03:16:37;;;;;;;10.88;10.57;;;20.00;99.90;;;;;;5223090;27;20230;-88
2023/06/19 03:19:05;;;;;;;10.88;10.57;;;20.10;99.90;;;;;;5222863;27;20305;-88
2023/06/19 03:21:35;;;;;;;10.60;10.30;;;20.10;99.90;;;;;;5222712;27;20225;-88
2023/06/19 03:24:11;;;;;;;10.68;10.38;;;20.20;99.90;;;;;;5222629;27;20255;-88
2023/06/19 03:26:39;;;;;;;10.80;10.50;;;20.20;99.90;;;;;;5222913;27;20272;-87
2023/06/19 03:29:11;;;;;;;10.63;10.32;;;20.20;99.90;;;;;;5222438;27;20229;-87
2023/06/19 03:31:42;;;;;;;10.60;10.30;;;20.30;99.90;;;;;;5223197;27;20225;-88
2023/06/19 03:34:10;;;;;;;10.30;10.00;;;20.30;99.90;;;;;;5223345;27;20273;-87
2023/06/19 03:39:24;;;;;;;10.60;10.30;;;20.30;99.90;;;;;;5222808;27;20225;-88
2023/06/19 03:41:53;;;;;;;10.50;10.20;;;20.30;99.90;;;;;;5222797;27;20239;-87
2023/06/19 03:44:23;;;;;;;10.38;10.07;;;20.40;99.90;;;;;;5222695;27;20222;-88
2023/06/19 03:47:01;;;;;;;10.55;10.25;;;20.40;99.90;;;;;;5228908;27;20225;-88
2023/06/19 03:49:31;;;;;;;10.63;10.32;;;20.50;99.90;;;;;;5237368;27;20236;-87
2023/06/19 03:52:00;;;;;;;10.65;10.35;;;20.60;99.90;;;;;;5233396;27;20305;-87
2023/06/19 03:54:30;;;;;;;10.73;10.43;;;20.60;99.90;;;;;;5221472;27;20213;-87
2023/06/19 03:56:59;;;;;;;10.63;10.32;;;20.60;99.90;;;;;;5214953;27;20246;-88
2023/06/19 03:59:28;;;;;;;10.70;10.40;;;20.60;99.90;;;;;;5210360;27;20262;-88
2023/06/19 04:02:06;;;;;;;10.82;10.52;;;20.50;99.90;;;;;;5210138;27;20219;-87
2023/06/19 04:04:39;;;;;;;10.70;10.40;;;20.40;99.90;;;;;;5209697;27;20229;-86
2023/06/19 04:07:07;;;;;;;10.40;10.10;;;20.40;99.90;;;;;;5208943;27;20257;-89
2023/06/19 04:09:37;;;;;;;10.68;10.38;;;20.30;99.90;;;;;;5209215;27;20259;-86
2023/06/19 04:12:06;;;;;;;10.70;10.40;;;20.30;99.90;;;;;;5209177;27;20285;-87
2023/06/19 04:14:36;;;;;;;10.68;10.38;;;20.20;99.90;;;;;;5208722;27;20273;-87
2023/06/19 04:17:08;;;;;;;10.60;10.30;;;20.20;99.90;;;;;;5208990;27;20312;-87
2023/06/19 04:19:36;;;;;;;10.45;10.15;;;20.20;99.90;;;;;;5198466;22;20228;-84
2023/06/19 04:22:04;;;;;;;10.70;10.40;;;20.10;99.90;;;;;;5137775;27;20236;-84
2023/06/19 04:24:33;;;;;;;10.70;10.40;;;20.20;99.90;;;;;;5143916;27;20263;-84
2023/06/19 04:27:04;;;;;;;10.68;10.38;;;20.10;99.90;;;;;;5134953;27;20500;-84
2023/06/19 04:29:32;;;;;;;10.35;10.05;;;20.20;99.90;;;;;;5136259;27;20283;-84
2023/06/19 04:32:03;;;;;;;10.35;10.05;;;20.20;99.90;;;;;;5161328;27;20212;-84
2023/06/19 04:34:34;;;;;;;10.38;10.07;;;20.20;99.90;;;;;;5158684;27;20248;-84
2023/06/19 04:37:01;;;;;;;10.52;10.23;;;20.20;99.90;;;;;;5138755;27;20261;-84
2023/06/19 04:39:31;;;;;;;10.65;10.35;;;20.20;99.90;;;;;;5144175;27;20240;-84
2023/06/19 04:42:00;;;;;;;10.50;10.20;;;20.20;99.90;;;;;;5145468;27;20243;-84
2023/06/19 04:44:29;;;;;;;10.23;9.93;;;20.30;99.90;;;;;;5144950;27;20220;-85
2023/06/19 04:47:00;;;;;;;10.00;9.70;;;20.30;99.90;;;;;;5145177;27;20224;-85
2023/06/19 04:49:31;;;;;;;10.30;10.00;;;20.30;99.90;;;;;;5146142;27;20232;-85
2023/06/19 04:52:00;;;;;;;10.35;10.05;;;20.30;99.90;;;;;;5146094;27;20250;-84
2023/06/19 04:54:27;;;;;;;10.25;9.95;;;20.40;99.90;;;;;;5155697;27;20218;-84
2023/06/19 04:56:57;;;;;;;10.18;9.88;;;20.40;99.90;;;;;;5155549;27;20288;-85
2023/06/19 04:59:25;;;;;;;10.15;9.85;;;20.50;99.90;;;;;;5150065;27;20228;-85
2023/06/19 05:01:55;;;;;;;10.10;9.80;;;20.50;99.90;;;;;;5149291;27;20220;-84
2023/06/19 05:04:25;;;;;;;10.30;10.00;;;20.60;99.90;;;;;;5147877;27;20239;-84
2023/06/19 05:06:54;;;;;;;10.43;10.13;;;20.60;99.90;;;;;;5138530;27;20239;-85
2023/06/19 05:09:32;;;;;;;10.40;10.10;;;20.70;99.90;;;;;;5146756;27;20329;-85
2023/06/19 05:12:01;;;;;;;10.23;9.93;;;20.80;99.90;;;;;;5140065;27;20228;-85
2023/06/19 05:14:31;;;;;;;10.23;9.93;;;20.90;99.90;;;;;;5146983;27;20228;-84
2023/06/19 05:17:00;;;;;;;10.52;10.23;;;21.00;99.90;;;;;;5147884;27;20231;-85
2023/06/19 05:19:30;;;;;;;10.18;9.88;;;21.20;99.90;;;;;;5146527;27;20240;-84
2023/06/19 05:22:00;;;;;;;10.23;9.93;;;21.30;99.90;;;;;;5146967;27;20220;-84
2023/06/19 05:24:31;;;;;;;10.35;10.05;;;21.40;99.90;;;;;;5146033;27;20281;-84
2023/06/19 05:26:59;;;;;;;10.50;10.20;;;21.50;99.90;;;;;;5148077;27;20239;-85
2023/06/19 05:29:29;;;;;;;10.27;9.98;;;21.50;99.90;;;;;;5152018;27;20236;-84
2023/06/19 05:31:57;;;;;;;10.20;9.90;;;21.50;99.90;;;;;;5146744;27;20330;-84
2023/06/19 05:34:27;;;;;;;10.13;9.82;;;21.60;99.90;;;;;;5147498;27;20208;-84
2023/06/19 05:36:56;;;;;;;10.15;9.85;;;21.70;99.90;;;;;;5146834;27;20224;-85
2023/06/19 05:39:25;;;;;;;10.15;9.85;;;21.80;99.90;;;;;;5145719;27;20323;-85
2023/06/19 05:42:03;;;;;;;10.13;9.82;;;22.00;99.90;;;;;;5138481;27;20303;-85
2023/06/19 05:44:32;;;;;;;10.60;10.30;;;22.10;99.90;;;;;;5143038;27;20421;-86
2023/06/19 05:47:05;;;;;;;10.27;9.98;;;22.30;99.90;;;;;;5144985;27;20277;-85
2023/06/19 05:49:33;;;;;;;10.20;9.90;;;22.50;99.90;;;;;;5144234;27;20254;-85
2023/06/19 05:52:01;;;;;;;9.82;9.52;;;22.70;99.90;;;;;;5150731;27;20224;-85
2023/06/19 05:54:30;;;;;;;9.90;9.60;;;22.90;99.90;;;;;;5157539;27;20280;-85
2023/06/19 05:59:48;;;;;;;10.07;9.77;;;23.20;99.90;;;;;;5145065;27;20235;-85
2023/06/19 06:02:16;;;;;;;10.13;9.82;;;23.30;99.90;;;;;;5143727;27;20238;-86
2023/06/19 06:04:46;;;;;;;10.20;9.90;;;23.40;99.90;;;;;;5143546;27;20232;-86
2023/06/19 06:07:17;;;;;;;10.30;10.00;;;23.40;99.90;;;;;;5144276;27;20284;-85
2023/06/19 06:09:44;;;;;;;10.80;10.50;;;23.40;99.90;;;;;;5144055;27;20262;-86
2023/06/19 06:12:24;;;;;;;10.57;10.27;;;23.30;99.90;;;;;;5143504;27;20312;-85
2023/06/19 06:14:53;;;;;;;10.90;10.60;;;23.10;99.90;;;;;;5143077;27;20227;-86
2023/06/19 06:17:24;;;;;;;10.55;10.25;;;23.10;99.90;;;;;;5143684;27;20232;-86
2023/06/19 06:23:08;;;;;;;10.50;10.20;;;23.00;99.90;;;;;;5141753;27;20291;-84
2023/06/19 06:25:36;;;;;;;10.25;9.95;;;23.00;99.90;;;;;;5145461;27;20232;-84
2023/06/19 06:28:08;;;;;;;10.40;10.10;;;23.00;99.90;;;;;;5146347;27;20232;-86
2023/06/19 06:30:36;;;;;;;10.27;9.98;;;23.00;99.90;;;;;;5145581;27;20289;-86
2023/06/19 06:33:05;;;;;;;10.38;10.07;;;22.90;99.90;;;;;;5145783;27;20239;-85
2023/06/19 06:35:36;;;;;;;10.27;9.98;;;23.00;99.90;;;;;;5146903;27;20227;-84
2023/06/19 06:38:04;;;;;;;9.80;9.50;;;23.00;99.90;;;;;;5146994;27;20236;-83
2023/06/19 06:40:33;;;;;;;10.20;9.90;;;23.00;99.90;;;;;;5145487;27;20291;-83
2023/06/19 06:43:42;;;;;;;9.90;9.60;;;23.10;99.90;;;;;;5135155;27;20315;-86
2023/06/19 06:46:42;;;;;;;10.20;9.90;;;23.10;99.90;;;;;;5143577;27;20236;-86
2023/06/19 06:49:13;;;;;;;9.77;9.48;;;23.20;99.90;;;;;;5150900;27;20236;-83
2023/06/19 06:51:41;;;;;;;9.68;9.38;;;23.20;99.90;;;;;;5151519;27;20234;-84
2023/06/19 06:54:12;;;;;;;10.00;9.70;;;23.30;99.90;;;;;;5146769;27;20220;-87
2023/06/19 06:59:37;;;;;;;10.20;9.90;;;23.70;99.90;;;;;;5139683;27;20298;-87
2023/06/19 07:02:05;;;;;;;10.13;9.82;;;23.90;99.90;;;;;;5150656;27;20254;-85
2023/06/19 07:04:43;;;;;;;9.90;9.60;;;24.00;99.90;;;;;;5157190;27;20253;-90
2023/06/19 07:07:12;;;;;;;9.93;9.63;;;24.10;99.90;;;;;;5154619;27;20238;-86
2023/06/19 07:09:43;;;;;;;9.90;9.60;;;24.20;99.90;;;;;;5148895;27;20266;-85
2023/06/19 07:12:21;;;;;;;;;;;;;;;;;;;;;
2023/06/19 07:15:00;;;;;;;9.75;9.45;;;24.40;99.90;;;;;;5116782;27;20230;-86
2023/06/19 07:17:28;;;;;;;9.90;9.60;;;24.50;99.90;;;;;;5143086;27;20223;-86
2023/06/19 07:19:57;;;;;;;10.15;9.85;;;24.60;99.90;;;;;;5142845;27;20274;-85
2023/06/19 07:22:27;;;;;;;10.10;9.80;;;24.70;99.90;;;;;;5144357;27;20255;-89
2023/06/19 07:25:07;;;;;;;;;;;;;;;;;;;;;
2023/06/19 07:27:44;;;;;;;10.07;9.77;;;24.90;99.90;;;;;;5150836;27;20203;-88
2023/06/19 07:30:25;;;;;;;10.40;10.10;;;25.00;99.90;;;;;;5160114;27;20295;-88
2023/06/19 07:32:52;;;;;;;10.70;10.40;;;25.00;99.90;;;;;;5156143;27;20232;-82
2023/06/19 07:35:22;;;;;;;10.40;10.10;;;25.20;99.90;;;;;;5162445;27;20230;-85
2023/06/19 07:38:07;;;;;;;10.35;10.05;;;25.20;99.90;;;;;;5140936;27;20307;-88
2023/06/19 07:40:38;;;;;;;10.38;10.07;;;25.30;99.90;;;;;;5147554;27;20266;-84
2023/06/19 07:43:07;;;;;;;10.40;10.10;;;25.40;99.90;;;;;;5149405;27;20242;-86
2023/06/19 07:45:39;;;;;;;10.35;10.05;;;25.50;99.90;;;;;;5148229;27;20235;-85
2023/06/19 07:48:06;;;;;;;10.43;10.13;;;25.50;99.90;;;;;;5149972;27;20231;-85
2023/06/19 07:50:34;;;;;;;10.20;9.90;;;25.50;99.90;;;;;;5149392;27;20231;-85
2023/06/19 07:55:44;;;;;;;10.18;9.88;;;25.50;99.90;;;;;;5147677;27;20228;-85
2023/06/19 07:58:11;;;;;;;10.27;9.98;;;25.60;99.90;;;;;;5147959;27;20311;-84
2023/06/19 08:06:08;;;;;;;10.10;9.80;;;25.80;99.90;;;;;;5148180;27;20228;-86
2023/06/19 08:08:36;;;;;;;10.07;9.77;;;25.80;99.90;;;;;;5148191;27;20216;-85
2023/06/19 08:11:05;;;;;;;10.25;9.95;;;25.70;99.90;;;;;;5148034;27;20235;-85
2023/06/19 08:13:36;;;;;;;9.98;9.68;;;25.70;99.90;;;;;;5148648;27;20281;-85
2023/06/19 08:16:07;;;;;;;10.60;10.30;;;25.80;99.90;;;;;;5148847;27;20285;-84
2023/06/19 08:18:37;;;;;;;10.38;10.07;;;25.70;99.90;;;;;;5148586;27;20212;-84
2023/06/19 08:21:05;;;;;;;10.38;10.07;;;25.60;99.90;;;;;;5152942;27;20356;-85
2023/06/19 08:23:34;;;;;;;10.30;10.00;;;25.60;99.90;;;;;;5147162;27;20232;-85
2023/06/19 08:28:44;;;;;;;10.20;9.90;;;25.70;99.90;;;;;;5147177;27;20227;-85
2023/06/19 08:31:15;;;;;;;10.15;9.85;;;25.80;99.90;;;;;;5147494;27;20234;-84
2023/06/19 08:33:43;;;;;;;10.10;9.80;;;25.80;99.90;;;;;;5147724;27;20277;-90
2023/06/19 08:36:11;;;;;;;10.50;10.20;;;25.70;99.90;;;;;;5147094;27;20288;-89
2023/06/19 08:38:40;;;;;;;10.50;10.20;;;25.60;99.90;;;;;;5149295;27;20212;-90
2023/06/19 08:41:09;;;;;;;10.40;10.10;;;25.60;99.90;;;;;;5144449;27;20310;-89
2023/06/19 08:43:41;;;;;;;10.40;10.10;;;25.70;99.90;;;;;;5142416;27;20274;-89
2023/06/19 08:46:18;;;;;;;10.50;10.20;;;25.80;99.90;;;;;;5143964;27;20323;-89
2023/06/19 08:48:57;;;;;;;10.25;9.95;;;26.00;99.90;;;;;;5144097;27;20228;-90
2023/06/19 08:51:26;;;;;;;10.68;10.38;;;26.00;99.90;;;;;;5144772;27;20314;-89
2023/06/19 08:54:04;;;;;;;10.70;10.40;;;26.00;99.90;;;;;;5123398;28;20303;-89
2023/06/19 08:56:35;;;;;;;10.73;10.43;;;26.00;99.90;;;;;;5123353;28;20287;-89
2023/06/19 08:59:14;;;;;;;10.70;10.40;;;26.10;99.90;;;;;;5122804;28;20229;-90
2023/06/19 09:01:59;;;;;;;10.27;9.98;;;26.40;99.90;;;;;;5123304;28;20386;-90
2023/06/19 09:04:40;;;;;;;10.50;10.20;;;26.60;99.90;;;;;;5123923;28;20229;-90
2023/06/19 09:07:28;;;;;;;10.57;10.27;;;26.70;99.90;;;;;;5123266;28;20232;-90
2023/06/19 09:10:03;;;;;;;10.73;10.43;;;26.70;99.90;;;;;;5127201;27;20221;-89
2023/06/19 09:12:43;;;;;;;10.55;10.25;;;27.00;99.90;;;;;;5141280;27;20204;-90
2023/06/19 09:15:23;;;;;;;10.75;10.45;;;27.30;99.90;;;;;;5124448;28;20281;-89
2023/06/19 09:18:15;;;;;;;10.50;10.20;;;27.60;99.90;;;;;;5125530;28;20228;-88
2023/06/19 09:20:47;;;;;;;10.15;9.85;;;27.90;99.90;;;;;;5123578;28;20236;-90
2023/06/19 09:23:22;;;;;;;10.02;9.73;;;28.10;99.90;;;;;;5124024;28;20221;-90
2023/06/19 09:25:59;;;;;;;9.80;9.50;;;28.00;99.90;;;;;;5105270;28;20220;-90
2023/06/19 09:28:41;;;;;;;;;;;;;;;;;;;;;
2023/06/19 09:31:09;;;;;;;9.88;9.57;;;28.20;99.90;;;;;;5123931;28;20280;-89
2023/06/19 09:34:44;;;;;;;10.63;10.32;;;28.50;99.90;;;;;;5123097;28;20348;-91
2023/06/19 09:37:18;;;;;;;10.68;10.38;;;28.50;99.90;;;;;;5123555;27;20318;-90
2023/06/19 09:40:10;;;;;;;10.85;10.55;;;28.20;99.90;;;;;;5143135;27;20228;-89
2023/06/19 09:42:43;;;;;;;10.63;10.32;;;28.10;99.90;;;;;;5143163;27;20247;-90
2023/06/19 09:48:35;;;;;;;10.80;10.50;;;28.10;99.90;;;;;;5148597;27;20216;-91
2023/06/19 09:51:19;;;;;;;10.30;10.00;;;28.20;99.90;;;;;;5151329;27;20277;-90
2023/06/19 09:57:23;;;;;;;;;;;;;;;;;;;;;
2023/06/19 10:02:38;;;;;;;10.27;9.98;;;29.30;99.90;;;;;;5136500;27;20236;-89
2023/06/19 10:05:08;;;;;;;10.50;10.20;;;29.60;99.90;;;;;;5142995;27;20220;-90
2023/06/19 10:07:45;;;;;;;10.57;10.27;;;29.80;99.90;;;;;;5144228;27;20228;-89
2023/06/19 10:10:27;;;;;;;10.63;10.32;;;29.60;99.90;;;;;;5143307;27;20240;-90
2023/06/19 10:13:02;;;;;;;10.60;10.30;;;29.60;99.90;;;;;;5143232;27;20315;-91
2023/06/19 10:19:05;;;;;;;10.60;10.30;;;29.90;99.90;;;;;;5134806;27;20244;-90
2023/06/19 10:22:10;;;;;;;10.80;10.50;;;30.00;99.90;;;;;;5141865;27;20248;-88
2023/06/19 10:24:57;;;;;;;10.90;10.60;;;30.40;99.90;;;;;;5141532;27;20232;-88
2023/06/19 10:27:42;;;;;;;10.50;10.20;;;30.70;99.90;;;;;;5141585;27;20248;-92
2023/06/19 10:30:21;;;;;;;10.70;10.40;;;30.90;99.90;;;;;;5140472;27;20236;-88
2023/06/19 10:32:58;;;;;;;10.68;10.38;;;30.60;99.90;;;;;;5141849;27;20291;-88
2023/06/19 10:35:29;;;;;;;10.90;10.60;;;30.10;99.90;;;;;;5141526;27;20232;-89
2023/06/19 10:38:16;;;;;;;11.10;10.80;;;29.80;99.90;;;;;;5141354;27;20223;-88
2023/06/19 10:40:54;;;;;;;11.23;10.93;;;29.80;99.90;;;;;;5140116;27;20285;-88
2023/06/19 10:43:30;;;;;;;11.07;10.77;;;29.90;99.90;;;;;;5141039;27;20224;-86
2023/06/19 10:46:02;;;;;;;11.05;10.75;;;29.90;99.90;;;;;;5148439;27;20237;-87
2023/06/19 10:48:41;;;;;;;10.95;10.65;;;30.20;99.90;;;;;;5146510;27;20249;-88
2023/06/19 10:51:29;;;;;;;10.80;10.50;;;30.50;99.90;;;;;;5149007;27;20223;-89
2023/06/19 10:53:58;;;;;;;10.55;10.25;;;30.80;99.90;;;;;;5136846;27;20224;-87
2023/06/19 10:56:33;;;;;;;10.70;10.40;;;30.80;99.90;;;;;;5142896;27;20228;-87
2023/06/19 10:59:13;;;;;;;10.73;10.43;;;30.70;99.90;;;;;;5151401;27;20289;-87
2023/06/19 11:01:44;;;;;;;10.55;10.25;;;30.70;99.90;;;;;;5147416;27;20238;-88
2023/06/19 11:04:40;;;;;;;10.73;10.43;;;30.70;99.90;;;;;;5143232;27;20235;-88
2023/06/19 11:07:27;;;;;;;10.75;10.45;;;30.70;99.90;;;;;;5146104;27;20224;-89
2023/06/19 11:10:26;;;;;;;10.30;10.00;;;30.50;99.90;;;;;;5146779;27;20238;-89
2023/06/19 11:13:37;;;;;;;10.70;10.40;;;29.80;99.90;;;;;;5143803;27;20235;-89
2023/06/19 11:16:13;;;;;;;10.75;10.45;;;29.30;99.90;;;;;;5124276;28;20232;-89
2023/06/19 11:18:43;;;;;;;10.63;10.32;;;29.40;99.90;;;;;;5143694;27;20247;-88
2023/06/19 11:26:58;;;;;;;10.68;10.38;;;29.90;99.90;;;;;;5152912;27;20287;-89
2023/06/19 11:29:32;;;;;;;10.80;10.50;;;30.30;99.90;;;;;;5146757;27;20231;-89
2023/06/19 11:32:12;;;;;;;10.70;10.40;;;30.80;99.90;;;;;;5146011;27;20264;-89
2023/06/19 11:34:40;;;;;;;10.70;10.40;;;31.30;99.90;;;;;;5146050;27;20227;-89
2023/06/19 11:37:19;;;;;;;10.65;10.35;;;31.30;99.90;;;;;;5144742;27;20238;-89
2023/06/19 12:06:19;;;;;;;;;;;;;;;;;;;;;
2023/06/19 12:08:50;;;;;;;10.45;10.15;;;33.10;99.90;;;;;;5014650;28;20258;-87
2023/06/19 12:20:42;;;;;;;10.60;10.30;;;32.80;99.90;;;;;;5124387;28;20291;-88
2023/06/19 12:31:00;;;;;;;10.50;10.20;;;32.50;99.90;;;;;;5058172;28;20246;-87
2023/06/19 12:52:31;;;;;;;10.80;10.50;;;33.20;99.90;;;;;;5099572;27;20220;-88
2023/06/19 12:58:13;;;;;;;11.00;10.70;;;34.10;99.90;;;;;;5125708;28;20231;-89
2023/06/19 13:00:41;;;;;;;11.13;10.82;;;34.20;99.90;;;;;;5126239;27;20228;-89
2023/06/19 13:05:58;;;;;;;11.07;10.77;;;34.00;99.90;;;;;;5126841;28;20311;-88
2023/06/19 13:08:48;;;;;;;;;;;;;;;;;;;;;
2023/06/19 13:11:40;;;;;;;11.10;10.80;;;34.30;99.90;;;;;;5129387;27;20215;-87
2023/06/19 13:15:04;;;;;;;11.15;10.85;;;34.50;99.90;;;;;;5124765;27;20239;-87
2023/06/19 13:21:33;;;;;;;11.10;10.80;;;35.10;99.90;;;;;;5119595;27;20232;-89
2023/06/19 13:24:00;;;;;;;11.00;10.70;;;34.40;99.90;;;;;;5137105;27;20227;-90
2023/06/19 13:26:31;;;;;;;10.90;10.60;;;33.50;99.90;;;;;;5143649;27;20232;-89
2023/06/19 13:29:07;;;;;;;10.95;10.65;;;32.90;99.90;;;;;;5142634;27;20243;-88
2023/06/19 13:44:55;;;;;;;10.70;10.40;;;31.00;99.90;;;;;;5109623;27;20217;-92
2023/06/19 13:47:25;;;;;;;10.80;10.50;;;31.00;99.90;;;;;;5039786;28;20304;-90
2023/06/19 13:49:55;;;;;;;10.57;10.27;;;31.10;99.90;;;;;;5089046;28;20230;-90
2023/06/19 13:53:01;;;;;;;10.50;10.20;;;31.40;99.90;;;;;;5102681;28;20229;-91
2023/06/19 13:59:49;;;;;;;10.65;10.35;;;32.10;99.90;;;;;;5099607;28;20225;-91
2023/06/19 14:03:02;;;;;;;10.30;10.00;;;32.20;99.90;;;;;;5101495;28;20226;-90
2023/06/19 14:21:01;;;;;;;10.30;10.00;;;30.10;99.90;;;;;;5055306;28;20286;-90
2023/06/19 14:23:43;;;;;;;10.35;10.05;;;30.00;99.90;;;;;;5091081;28;20225;-89
2023/06/19 14:26:18;;;;;;;10.68;10.38;;;30.00;99.90;;;;;;5100146;28;20291;-90
2023/06/19 14:28:58;;;;;;;10.65;10.35;;;29.90;99.90;;;;;;5100721;28;20223;-89
2023/06/19 14:31:27;;;;;;;10.70;10.40;;;29.80;99.90;;;;;;5101060;28;20319;-89
2023/06/19 14:33:55;;;;;;;10.65;10.35;;;29.80;99.90;;;;;;5101341;28;20251;-90
2023/06/19 14:39:13;;;;;;;10.80;10.50;;;29.50;99.90;;;;;;5099906;28;20226;-90
2023/06/19 14:41:59;;;;;;;10.95;10.65;;;29.20;99.90;;;;;;5099657;28;20236;-89
2023/06/19 14:44:33;;;;;;;11.10;10.80;;;28.60;99.90;;;;;;5100030;28;20289;-89
2023/06/19 14:47:19;;;;;;;10.88;10.57;;;28.10;99.90;;;;;;5100991;28;20231;-90
2023/06/19 14:49:51;;;;;;;11.20;10.90;;;27.60;99.90;;;;;;5101515;28;20233;-90
2023/06/19 14:52:21;;;;;;;11.40;11.10;;;27.20;99.90;;;;;;5101679;28;20225;-89
2023/06/19 14:54:50;;;;;;;11.73;11.32;;;26.60;99.90;;;;;;5101856;28;20279;-90
2023/06/19 14:57:31;;;;;;;12.05;11.65;;;26.10;99.90;;;;;;5107927;28;20244;-89
2023/06/19 14:59:58;;;;;;;11.70;11.30;;;25.40;99.90;;;;;;5119435;27;20205;-86
2023/06/19 15:05:34;;;;;;;11.90;11.50;;;24.10;99.90;;;;;;5107504;28;20225;-88
2023/06/19 15:08:21;;;;;;;12.20;11.80;;;23.70;99.90;;;;;;5101820;28;20221;-88
2023/06/19 15:18:09;;;;;;;11.35;10.98;;;22.90;99.90;;;;;;5082043;28;20321;-91
2023/06/19 15:20:38;;;;;;;10.88;10.57;;;22.70;99.90;;;;;;5087894;28;20233;-85
2023/06/19 15:23:07;;;;;;;10.90;10.60;;;22.40;99.90;;;;;;5110935;28;20271;-85
2023/06/19 15:25:36;;;;;;;10.70;10.40;;;22.20;99.90;;;;;;5108390;28;20340;-85
2023/06/19 15:28:06;;;;;;;10.77;10.48;;;22.00;99.90;;;;;;5101795;28;20229;-85
2023/06/19 15:30:35;;;;;;;11.25;10.95;;;21.80;99.90;;;;;;5104906;28;20247;-83
2023/06/19 15:33:17;;;;;;;11.20;10.90;;;21.60;99.90;;;;;;5104327;28;20217;-83
2023/06/19 15:35:45;;;;;;;10.30;10.00;;;21.50;99.90;;;;;;5103148;28;20239;-84
2023/06/19 15:38:21;;;;;;;10.20;9.90;;;21.50;99.90;;;;;;5102993;28;20225;-88
2023/06/19 15:40:50;;;;;;;9.95;9.65;;;21.40;99.90;;;;;;5080415;28;20313;-86
2023/06/19 15:43:20;;;;;;;9.65;9.35;;;21.40;99.90;;;;;;5079836;28;20349;-88
2023/06/19 15:45:49;;;;;;;9.90;9.60;;;21.40;99.90;;;;;;5080959;28;20292;-87
2023/06/19 15:48:28;;;;;;;9.80;9.50;;;21.40;99.90;;;;;;5083245;28;20230;-87
2023/06/19 15:50:57;;;;;;;9.60;9.30;;;21.40;99.90;;;;;;5086076;28;20226;-87
2023/06/19 15:53:27;;;;;;;10.27;9.98;;;21.60;99.90;;;;;;5083595;28;20245;-87
2023/06/19 15:55:56;;;;;;;9.43;9.13;;;21.70;99.90;;;;;;5083797;28;20320;-88
2023/06/19 15:58:25;;;;;;;9.80;9.50;;;22.00;99.90;;;;;;5083535;28;20225;-87
2023/06/19 16:00:55;;;;;;;8.75;8.55;;;22.30;99.90;;;;;;5085589;28;20321;-84
2023/06/19 16:03:28;;;;;;;9.30;9.00;;;22.70;99.90;;;;;;5085331;28;20233;-85
2023/06/19 16:05:55;;;;;;;9.57;9.27;;;23.00;99.90;;;;;;5085912;28;20284;-83
2023/06/19 16:08:24;;;;;;;10.60;10.30;;;23.30;99.90;;;;;;5083918;28;20256;-88
2023/06/19 16:10:53;;;;;;;10.98;10.68;;;23.60;99.90;;;;;;5082869;28;20234;-88
2023/06/19 16:13:22;;;;;;;10.80;10.50;;;24.20;99.90;;;;;;5083206;28;21027;-88
2023/06/19 16:15:53;;;;;;;10.50;10.20;;;24.70;99.90;;;;;;5083743;28;20234;-89
2023/06/19 16:18:23;;;;;;;10.50;10.20;;;25.30;99.90;;;;;;5083148;28;20229;-89
2023/06/19 16:21:02;;;;;;;10.48;10.18;;;25.80;99.90;;;;;;5083461;28;20229;-89